Terminal Aerodrome Forecast
Issued by NWS Melbourne, FL

Current Version | Previous Version | Text Only | Print | Product List | Glossary On
Versions: 1 2 3 4 5 6 7 8 9 10 11 12 13 14 15 16 17 18 19 20 21
283
FTUS42 KMLB 192326
TAFVRB
TAF
KVRB 192326Z 2000/2024 03007KT P6SM SKC
     FM200200 05004KT P6SM SKC
     FM201000 35005KT 4SM BR FEW008
     FM201400 02007KT P6SM SCT025
     FM201700 05009KT P6SM SCT035=

USA.gov is the U.S. government's official web portal to all federal, state and local government web resources and services.